Time;durP1;ratioP1;P1;durP2;ratioP2;P2;SDS_P1;SDS_P2;PMS_P1;PMS_P2;Temp;Humidity;BMP_temperature;BMP_pressure;BME280_temperature;BME280_humidity;BME280_pressure;Samples;Min_cycle;Max_cycle;Signal;HPM_P1;HPM_P2
2024/02/05 00:00:27;;;;;;;196.23;69.63;;;;;;;;;;4972199;28;20158;-61
2024/02/05 00:02:53;;;;;;;171.57;69.28;;;;;;;;;;4972865;28;20038;-61
2024/02/05 00:05:20;;;;;;;193.67;70.00;;;;;;;;;;4968684;28;20019;-61
2024/02/05 00:07:46;;;;;;;128.65;61.65;;;;;;;;;;4955116;28;20506;-61
2024/02/05 00:10:13;;;;;;;126.05;61.83;;;;;;;;;;4967212;28;20436;-61
2024/02/05 00:12:39;;;;;;;113.85;58.60;;;;;;;;;;4957458;28;20506;-60
2024/02/05 00:15:06;;;;;;;87.38;56.53;;;;;;;;;;4956588;28;20027;-60
2024/02/05 00:17:32;;;;;;;89.07;55.45;;;;;;;;;;4957505;28;20035;-61
2024/02/05 00:19:58;;;;;;;95.28;60.42;;;;;;;;;;4971625;28;20049;-61
2024/02/05 00:22:24;;;;;;;90.82;56.97;;;;;;;;;;4972448;28;20038;-60
2024/02/05 00:24:51;;;;;;;87.57;56.40;;;;;;;;;;4972873;28;20022;-61
2024/02/05 00:27:17;;;;;;;94.05;59.33;;;;;;;;;;4970280;28;20423;-60
2024/02/05 00:29:43;;;;;;;97.85;61.35;;;;;;;;;;4972061;28;20081;-61
2024/02/05 00:32:10;;;;;;;96.35;61.47;;;;;;;;;;4970907;28;20093;-61
2024/02/05 00:34:37;;;;;;;91.40;60.28;;;;;;;;;;4972398;28;20035;-61
2024/02/05 00:37:03;;;;;;;92.57;58.85;;;;;;;;;;4971947;28;20038;-61
2024/02/05 00:39:29;;;;;;;91.07;59.45;;;;;;;;;;4954916;28;20057;-61
2024/02/05 00:41:56;;;;;;;117.60;58.95;;;;;;;;;;4970818;28;20380;-61
2024/02/05 00:44:22;;;;;;;79.03;54.03;;;;;;;;;;4971076;28;20082;-61
2024/02/05 00:46:48;;;;;;;93.60;57.15;;;;;;;;;;4972010;28;20499;-60
2024/02/05 00:49:15;;;;;;;81.05;53.40;;;;;;;;;;4971014;28;20045;-61
2024/02/05 00:51:41;;;;;;;93.37;50.67;;;;;;;;;;4970550;28;20027;-61
2024/02/05 00:54:07;;;;;;;307.75;66.20;;;;;;;;;;4970692;28;20027;-60
2024/02/05 00:56:33;;;;;;;393.52;78.13;;;;;;;;;;4971832;28;20034;-61
2024/02/05 00:59:00;;;;;;;316.80;74.68;;;;;;;;;;4972139;28;20027;-60
2024/02/05 01:01:26;;;;;;;406.87;82.13;;;;;;;;;;4971685;28;20114;-61
2024/02/05 01:03:53;;;;;;;283.52;68.85;;;;;;;;;;4970676;28;20026;-61
2024/02/05 01:06:19;;;;;;;121.43;57.97;;;;;;;;;;4972102;28;20034;-61
2024/02/05 01:08:46;;;;;;;135.57;55.88;;;;;;;;;;4971911;28;20070;-61
2024/02/05 01:11:13;;;;;;;78.05;53.13;;;;;;;;;;4971673;28;20082;-61
2024/02/05 01:13:39;;;;;;;350.40;78.18;;;;;;;;;;4971865;28;20472;-61
2024/02/05 01:16:06;;;;;;;580.55;88.72;;;;;;;;;;4970347;28;20483;-61
2024/02/05 01:18:32;;;;;;;379.73;82.13;;;;;;;;;;4970811;28;20031;-61
2024/02/05 01:21:01;;;;;;;232.50;68.27;;;;;;;;;;4970527;28;20023;-61
2024/02/05 01:23:28;;;;;;;271.55;71.43;;;;;;;;;;4970580;28;20039;-61
2024/02/05 01:25:54;;;;;;;164.68;61.75;;;;;;;;;;4970431;28;20498;-61
2024/02/05 01:28:21;;;;;;;119.97;55.55;;;;;;;;;;4970712;28;20037;-61
2024/02/05 01:30:47;;;;;;;161.20;57.40;;;;;;;;;;4970253;28;20039;-61
2024/02/05 01:33:13;;;;;;;274.93;73.10;;;;;;;;;;4970755;28;20062;-61
2024/02/05 01:35:39;;;;;;;357.77;71.30;;;;;;;;;;4971911;28;20492;-61
2024/02/05 01:38:06;;;;;;;415.50;75.20;;;;;;;;;;4970601;28;20023;-61
2024/02/05 01:40:34;;;;;;;303.70;66.47;;;;;;;;;;4972278;28;20046;-61
2024/02/05 01:43:00;;;;;;;397.60;71.65;;;;;;;;;;4973790;28;20062;-61
2024/02/05 01:45:27;;;;;;;375.73;75.70;;;;;;;;;;4974830;28;20399;-60
2024/02/05 01:47:53;;;;;;;452.00;83.60;;;;;;;;;;4974946;28;20031;-61
2024/02/05 01:50:20;;;;;;;499.63;87.80;;;;;;;;;;4957945;28;20023;-61
2024/02/05 01:52:50;;;;;;;456.00;80.25;;;;;;;;;;4975059;28;20033;-61
2024/02/05 01:55:17;;;;;;;397.67;79.07;;;;;;;;;;4974679;28;20027;-61
2024/02/05 01:57:44;;;;;;;443.13;89.90;;;;;;;;;;4974727;28;20387;-60
2024/02/05 02:00:11;;;;;;;745.65;140.05;;;;;;;;;;4974731;28;20050;-61
2024/02/05 02:02:40;;;;;;;484.25;98.05;;;;;;;;;;4954373;28;20064;-61
2024/02/05 02:05:06;;;;;;;350.40;82.57;;;;;;;;;;4973498;28;20483;-61
2024/02/05 02:07:33;;;;;;;516.07;102.90;;;;;;;;;;4973547;28;20097;-61
2024/02/05 02:10:00;;;;;;;518.00;93.75;;;;;;;;;;4973660;28;20130;-61
2024/02/05 02:12:26;;;;;;;540.58;106.68;;;;;;;;;;4974912;28;20027;-60
2024/02/05 02:14:53;;;;;;;450.63;91.00;;;;;;;;;;4957510;28;20109;-61
2024/02/05 02:17:20;;;;;;;478.80;91.80;;;;;;;;;;4973420;28;20119;-61
2024/02/05 02:19:48;;;;;;;641.13;123.85;;;;;;;;;;4974574;28;20030;-61
2024/02/05 02:22:38;;;;;;;468.35;95.57;;;;;;;;;;4974671;28;20460;-61
2024/02/05 02:25:06;;;;;;;436.02;89.57;;;;;;;;;;4974704;28;20105;-61
2024/02/05 02:27:33;;;;;;;363.60;85.65;;;;;;;;;;4974745;28;20027;-61
2024/02/05 02:30:00;;;;;;;378.50;85.05;;;;;;;;;;4974336;28;20396;-61
2024/02/05 02:32:38;;;;;;;493.98;113.75;;;;;;;;;;4974521;28;20034;-59
2024/02/05 02:35:07;;;;;;;408.63;86.10;;;;;;;;;;4957214;28;20042;-61
2024/02/05 02:37:36;;;;;;;532.08;104.55;;;;;;;;;;4973383;28;20129;-61
2024/02/05 02:40:09;;;;;;;359.33;82.55;;;;;;;;;;4974555;28;20031;-60
2024/02/05 02:42:40;;;;;;;504.60;103.57;;;;;;;;;;4974566;28;20389;-61
2024/02/05 02:45:08;;;;;;;408.92;93.00;;;;;;;;;;4974048;28;20035;-61
2024/02/05 02:47:34;;;;;;;309.75;78.53;;;;;;;;;;4974286;28;20069;-61
2024/02/05 02:50:00;;;;;;;395.77;79.50;;;;;;;;;;4974244;28;20513;-61
2024/02/05 02:52:27;;;;;;;429.52;91.18;;;;;;;;;;4972925;28;20061;-61
2024/02/05 02:54:53;;;;;;;352.98;83.85;;;;;;;;;;4974066;28;20043;-61
2024/02/05 02:57:19;;;;;;;393.60;85.97;;;;;;;;;;4956448;28;20045;-61
2024/02/05 02:59:47;;;;;;;441.30;87.50;;;;;;;;;;4973930;28;20061;-61
2024/02/05 03:02:13;;;;;;;405.73;88.93;;;;;;;;;;4973931;28;20034;-61
2024/02/05 03:04:40;;;;;;;445.48;91.35;;;;;;;;;;4973903;28;20023;-61
2024/02/05 03:07:07;;;;;;;396.23;91.05;;;;;;;;;;4971912;28;20035;-60
2024/02/05 03:09:33;;;;;;;449.63;95.25;;;;;;;;;;4967434;28;20400;-61
2024/02/05 03:11:59;;;;;;;560.93;97.17;;;;;;;;;;4973430;28;20034;-61
2024/02/05 03:14:26;;;;;;;583.28;103.50;;;;;;;;;;4973707;28;20280;-61
2024/02/05 03:16:53;;;;;;;635.50;131.83;;;;;;;;;;4972168;28;20185;-61
2024/02/05 03:19:20;;;;;;;492.48;102.40;;;;;;;;;;4973236;28;20267;-61
2024/02/05 03:21:46;;;;;;;520.10;106.65;;;;;;;;;;4971302;28;20222;-61
2024/02/05 03:24:12;;;;;;;535.78;111.45;;;;;;;;;;4973273;28;20444;-61
2024/02/05 03:26:38;;;;;;;595.72;117.43;;;;;;;;;;4973187;28;20037;-61
2024/02/05 03:29:04;;;;;;;446.60;100.23;;;;;;;;;;4973440;28;20035;-60
2024/02/05 03:31:31;;;;;;;538.50;107.93;;;;;;;;;;4973338;28;20488;-61
2024/02/05 03:33:57;;;;;;;448.00;96.45;;;;;;;;;;4972177;28;20035;-61
2024/02/05 03:36:23;;;;;;;465.67;104.28;;;;;;;;;;4973138;28;20089;-61
2024/02/05 03:38:49;;;;;;;539.65;116.35;;;;;;;;;;4973351;28;20051;-61
2024/02/05 03:41:15;;;;;;;579.03;120.07;;;;;;;;;;4955800;28;20034;-61
2024/02/05 03:43:41;;;;;;;451.23;100.00;;;;;;;;;;4971980;28;20042;-61
2024/02/05 03:46:08;;;;;;;711.67;153.50;;;;;;;;;;4972144;28;20106;-61
2024/02/05 03:48:36;;;;;;;454.80;100.35;;;;;;;;;;4973293;28;20507;-61
2024/02/05 03:51:03;;;;;;;410.30;99.78;;;;;;;;;;4971795;28;20041;-61
2024/02/05 03:53:29;;;;;;;455.70;94.65;;;;;;;;;;4971338;28;20206;-61
2024/02/05 03:55:55;;;;;;;507.77;107.85;;;;;;;;;;4972496;28;20387;-60
2024/02/05 03:58:21;;;;;;;450.88;100.18;;;;;;;;;;4973048;28;20027;-60
2024/02/05 04:00:47;;;;;;;460.25;112.97;;;;;;;;;;4972696;28;20574;-60
2024/02/05 04:03:14;;;;;;;405.88;99.97;;;;;;;;;;4973024;28;20074;-61
2024/02/05 04:05:40;;;;;;;742.28;162.45;;;;;;;;;;4971344;28;20027;-61
2024/02/05 04:08:07;;;;;;;711.67;158.60;;;;;;;;;;4971530;28;20439;-61
2024/02/05 04:10:34;;;;;;;490.15;113.60;;;;;;;;;;4971275;28;20093;-61
2024/02/05 04:13:01;;;;;;;442.15;104.32;;;;;;;;;;4972473;28;20030;-61
2024/02/05 04:15:27;;;;;;;495.90;109.93;;;;;;;;;;4970830;28;20027;-61
2024/02/05 04:17:53;;;;;;;668.22;134.98;;;;;;;;;;4971049;28;20034;-61
2024/02/05 04:20:19;;;;;;;734.95;158.57;;;;;;;;;;4971448;28;20498;-61
2024/02/05 04:22:45;;;;;;;500.20;114.10;;;;;;;;;;4972727;28;20022;-61
2024/02/05 04:25:11;;;;;;;624.47;139.18;;;;;;;;;;4972166;28;20034;-61
2024/02/05 04:27:38;;;;;;;398.20;100.27;;;;;;;;;;4971477;28;20042;-61
2024/02/05 04:30:04;;;;;;;506.10;112.72;;;;;;;;;;4992802;23;20121;-55
2024/02/05 04:32:31;;;;;;;560.83;120.35;;;;;;;;;;4932857;29;20040;-49
2024/02/05 04:34:57;;;;;;;397.95;102.63;;;;;;;;;;4920771;29;20397;-52
2024/02/05 04:37:25;;;;;;;485.85;121.95;;;;;;;;;;4932452;29;20139;-51
2024/02/05 04:39:52;;;;;;;475.83;113.38;;;;;;;;;;4934332;29;20035;-53
2024/02/05 04:42:18;;;;;;;415.55;107.45;;;;;;;;;;4919271;29;20059;-51
2024/02/05 04:44:44;;;;;;;465.25;109.00;;;;;;;;;;4918831;29;20488;-49
2024/02/05 04:47:11;;;;;;;365.67;93.22;;;;;;;;;;4916031;29;20054;-49
2024/02/05 04:49:37;;;;;;;341.38;88.78;;;;;;;;;;4933366;29;20027;-46
2024/02/05 04:52:03;;;;;;;366.58;90.32;;;;;;;;;;4933028;29;20423;-48
2024/02/05 04:54:29;;;;;;;449.83;97.93;;;;;;;;;;4938872;29;20031;-53
2024/02/05 04:56:56;;;;;;;382.23;96.93;;;;;;;;;;4918060;29;20487;-46
2024/02/05 04:59:22;;;;;;;471.77;108.30;;;;;;;;;;4922536;29;20024;-54
2024/02/05 05:01:48;;;;;;;401.52;104.57;;;;;;;;;;4934017;29;20369;-54
2024/02/05 05:04:15;;;;;;;505.10;107.40;;;;;;;;;;4934190;29;20028;-52
2024/02/05 05:06:43;;;;;;;672.05;144.57;;;;;;;;;;4934027;29;20027;-54
2024/02/05 05:09:12;;;;;;;429.90;101.20;;;;;;;;;;4934231;29;20489;-52
2024/02/05 05:11:38;;;;;;;385.60;100.97;;;;;;;;;;4934114;29;20028;-55
2024/02/05 05:14:04;;;;;;;408.52;98.63;;;;;;;;;;4934178;29;20032;-54
2024/02/05 05:16:31;;;;;;;400.25;94.43;;;;;;;;;;4937227;29;20110;-54
2024/02/05 05:19:01;;;;;;;541.93;116.40;;;;;;;;;;4937695;29;20152;-53
2024/02/05 05:21:28;;;;;;;384.08;95.50;;;;;;;;;;4937585;29;20043;-50
2024/02/05 05:23:54;;;;;;;419.45;89.05;;;;;;;;;;4937644;29;20055;-50
2024/02/05 05:26:23;;;;;;;470.42;99.00;;;;;;;;;;4937367;29;20043;-50
2024/02/05 05:28:51;;;;;;;448.25;108.53;;;;;;;;;;4936218;29;20035;-51
2024/02/05 05:31:17;;;;;;;592.53;130.15;;;;;;;;;;4937253;29;20419;-52
2024/02/05 05:33:44;;;;;;;627.47;137.83;;;;;;;;;;4937372;29;20204;-51
2024/02/05 05:36:10;;;;;;;501.58;123.88;;;;;;;;;;4937225;29;20290;-49
2024/02/05 05:38:36;;;;;;;577.00;131.37;;;;;;;;;;4937488;29;20024;-50
2024/02/05 05:41:03;;;;;;;546.17;127.38;;;;;;;;;;4937210;29;20259;-50
2024/02/05 05:43:30;;;;;;;517.58;126.03;;;;;;;;;;4937302;29;20035;-55
2024/02/05 05:45:56;;;;;;;564.83;138.57;;;;;;;;;;4937028;29;20028;-50
2024/02/05 05:48:22;;;;;;;447.08;97.95;;;;;;;;;;4937166;29;20115;-52
2024/02/05 05:50:49;;;;;;;702.27;151.63;;;;;;;;;;4937200;29;20123;-53
2024/02/05 05:53:15;;;;;;;671.78;151.18;;;;;;;;;;4937132;29;20509;-53
2024/02/05 05:55:47;;;;;;;776.53;172.88;;;;;;;;;;4936880;29;20146;-51
2024/02/05 05:58:13;;;;;;;754.85;168.50;;;;;;;;;;4935698;29;20059;-50
2024/02/05 06:00:40;;;;;;;543.38;121.43;;;;;;;;;;4936826;29;20070;-51
2024/02/05 06:03:06;;;;;;;772.25;178.60;;;;;;;;;;4936841;29;20396;-55
2024/02/05 06:05:32;;;;;;;365.80;97.13;;;;;;;;;;4936812;29;20032;-50
2024/02/05 06:07:58;;;;;;;503.75;110.07;;;;;;;;;;4935624;29;20036;-55
2024/02/05 06:10:24;;;;;;;369.42;110.20;;;;;;;;;;4936777;29;20083;-50
2024/02/05 06:12:51;;;;;;;582.22;134.10;;;;;;;;;;4936832;29;20032;-50
2024/02/05 06:15:17;;;;;;;428.63;109.57;;;;;;;;;;4936566;29;20032;-51
2024/02/05 06:17:43;;;;;;;488.73;114.63;;;;;;;;;;4936560;29;20130;-50
2024/02/05 06:20:09;;;;;;;393.80;108.60;;;;;;;;;;4936692;29;20488;-52
2024/02/05 06:22:36;;;;;;;679.58;163.65;;;;;;;;;;4936579;29;20039;-54
2024/02/05 06:25:02;;;;;;;444.10;114.70;;;;;;;;;;4936532;29;20444;-55
2024/02/05 06:27:28;;;;;;;349.75;102.57;;;;;;;;;;4935960;29;20348;-53
2024/02/05 06:29:55;;;;;;;574.03;140.45;;;;;;;;;;4936394;29;20032;-53
2024/02/05 06:32:21;;;;;;;350.50;101.15;;;;;;;;;;4936774;29;20114;-52
2024/02/05 06:34:49;;;;;;;341.27;100.90;;;;;;;;;;4936593;29;20118;-53
2024/02/05 06:37:16;;;;;;;312.13;101.30;;;;;;;;;;4936134;29;20107;-51
2024/02/05 06:39:42;;;;;;;388.08;105.97;;;;;;;;;;4936258;29;20043;-52
2024/02/05 06:42:08;;;;;;;292.77;98.03;;;;;;;;;;4936172;29;20047;-56
2024/02/05 06:44:34;;;;;;;368.25;105.28;;;;;;;;;;4936122;29;20042;-52
2024/02/05 06:47:03;;;;;;;439.33;126.50;;;;;;;;;;4934853;29;20142;-53
2024/02/05 06:49:29;;;;;;;331.95;102.68;;;;;;;;;;4936154;29;20020;-51
2024/02/05 06:51:55;;;;;;;352.85;104.78;;;;;;;;;;4935961;29;20065;-52
2024/02/05 06:54:21;;;;;;;297.13;103.43;;;;;;;;;;4936044;29;20497;-51
2024/02/05 06:56:47;;;;;;;263.83;99.20;;;;;;;;;;4934541;29;20086;-51
2024/02/05 06:59:15;;;;;;;193.43;85.47;;;;;;;;;;4918831;29;20071;-51
2024/02/05 07:01:41;;;;;;;237.25;91.15;;;;;;;;;;4934857;29;20386;-50
2024/02/05 07:04:07;;;;;;;162.43;76.10;;;;;;;;;;4934875;29;20042;-51
2024/02/05 07:06:33;;;;;;;198.00;78.78;;;;;;;;;;4935743;29;20031;-52
2024/02/05 07:09:00;;;;;;;155.05;78.72;;;;;;;;;;4935726;29;20055;-52
2024/02/05 07:11:26;;;;;;;213.02;89.07;;;;;;;;;;4935692;29;20413;-51
2024/02/05 07:13:52;;;;;;;194.13;85.63;;;;;;;;;;4935563;29;20086;-53
2024/02/05 07:16:21;;;;;;;167.98;84.85;;;;;;;;;;4935411;29;20445;-52
2024/02/05 07:18:47;;;;;;;179.75;81.43;;;;;;;;;;4935534;29;20031;-53
2024/02/05 07:21:13;;;;;;;181.10;78.30;;;;;;;;;;4935544;29;20031;-51
2024/02/05 07:23:39;;;;;;;312.02;106.20;;;;;;;;;;4935838;29;20035;-51
2024/02/05 07:26:06;;;;;;;164.52;79.40;;;;;;;;;;4935215;29;20038;-51
2024/02/05 07:28:32;;;;;;;196.38;87.35;;;;;;;;;;4935333;29;20034;-50
2024/02/05 07:30:58;;;;;;;156.05;77.63;;;;;;;;;;4935278;29;20066;-50
2024/02/05 07:33:24;;;;;;;150.77;76.97;;;;;;;;;;4935397;29;20036;-50
2024/02/05 07:35:51;;;;;;;135.73;71.40;;;;;;;;;;4935209;29;20027;-50
2024/02/05 07:38:17;;;;;;;132.38;68.07;;;;;;;;;;4934371;29;20020;-51
2024/02/05 07:40:43;;;;;;;146.98;69.18;;;;;;;;;;4935141;29;20509;-55
2024/02/05 07:43:09;;;;;;;136.03;68.37;;;;;;;;;;4935076;29;20024;-53
2024/02/05 07:45:35;;;;;;;127.20;67.30;;;;;;;;;;4934978;29;20508;-52
2024/02/05 07:48:02;;;;;;;157.18;75.53;;;;;;;;;;4933911;29;20481;-51
2024/02/05 07:50:29;;;;;;;;;;;;;;;;;;4934289;29;20042;-50
2024/02/05 07:52:56;;;;;;;352.40;103.18;;;;;;;;;;4917787;29;19922;-53
2024/02/05 07:55:22;;;;;;;;;;;;;;;;;;4935205;29;20028;-55
2024/02/05 07:57:48;;;;;;;335.48;92.25;;;;;;;;;;4934814;29;20058;-53
2024/02/05 08:00:14;;;;;;;253.10;89.07;;;;;;;;;;4934864;29;20503;-55
2024/02/05 08:02:41;;;;;;;155.20;68.10;;;;;;;;;;4933669;29;20035;-53
2024/02/05 08:05:07;;;;;;;232.60;87.47;;;;;;;;;;4934701;29;20059;-54
2024/02/05 08:07:33;;;;;;;146.00;73.00;;;;;;;;;;4934686;29;20107;-52
2024/02/05 08:10:00;;;;;;;465.52;150.48;;;;;;;;;;4933502;29;20035;-53
2024/02/05 08:12:26;;;;;;;151.38;85.85;;;;;;;;;;4934722;29;20087;-58
2024/02/05 08:14:52;;;;;;;325.40;102.40;;;;;;;;;;4933619;29;20370;-51
2024/02/05 08:17:18;;;;;;;429.33;114.05;;;;;;;;;;4934397;29;20056;-54
2024/02/05 08:19:44;;;;;;;358.50;102.05;;;;;;;;;;4934792;29;20067;-52
2024/02/05 08:22:10;;;;;;;170.70;78.15;;;;;;;;;;4933354;29;20027;-50
2024/02/05 08:24:37;;;;;;;193.73;79.37;;;;;;;;;;4933665;29;20392;-50
2024/02/05 08:27:03;;;;;;;261.73;85.50;;;;;;;;;;4934450;29;20059;-50
2024/02/05 08:29:30;;;;;;;150.93;74.43;;;;;;;;;;4934604;29;20453;-51
2024/02/05 08:31:58;;;;;;;257.83;77.53;;;;;;;;;;4934449;29;20122;-52
2024/02/05 08:34:24;;;;;;;217.30;76.22;;;;;;;;;;4933279;29;20564;-51
2024/02/05 08:36:50;;;;;;;289.35;95.85;;;;;;;;;;4934189;29;20039;-56
2024/02/05 08:39:16;;;;;;;303.33;94.15;;;;;;;;;;4934337;29;20071;-58
2024/02/05 08:41:42;;;;;;;343.43;108.47;;;;;;;;;;4933257;29;20036;-56
2024/02/05 08:44:09;;;;;;;207.27;76.67;;;;;;;;;;4934450;29;20020;-56
2024/02/05 08:46:35;;;;;;;167.82;71.47;;;;;;;;;;4934228;29;20078;-58
2024/02/05 08:49:01;;;;;;;229.33;76.73;;;;;;;;;;4935586;29;20067;-55
2024/02/05 08:51:30;;;;;;;312.88;95.78;;;;;;;;;;4936886;29;20086;-55
2024/02/05 08:53:57;;;;;;;183.57;78.03;;;;;;;;;;4938213;29;20355;-55
2024/02/05 08:56:23;;;;;;;274.48;79.20;;;;;;;;;;4938051;29;20028;-57
2024/02/05 08:58:49;;;;;;;553.53;128.75;;;;;;;;;;4938254;29;20392;-55
2024/02/05 09:01:16;;;;;;;182.50;70.17;;;;;;;;;;4938099;29;20027;-53
2024/02/05 09:03:42;;;;;;;186.27;74.38;;;;;;;;;;4937986;29;20035;-59
2024/02/05 09:06:09;;;;;;;368.42;97.05;;;;;;;;;;4937808;29;20018;-57
2024/02/05 09:08:36;;;;;;;427.15;116.10;;;;;;;;;;4920839;29;20027;-56
2024/02/05 09:11:04;;;;;;;207.50;77.07;;;;;;;;;;4937668;29;20067;-53
2024/02/05 09:13:30;;;;;;;200.35;74.50;;;;;;;;;;4938010;29;20385;-53
2024/02/05 09:15:57;;;;;;;138.88;69.05;;;;;;;;;;4920602;29;20027;-52
2024/02/05 09:18:24;;;;;;;259.30;85.00;;;;;;;;;;4937670;29;20031;-59
2024/02/05 09:20:51;;;;;;;225.05;79.88;;;;;;;;;;4937508;29;20034;-57
2024/02/05 09:23:18;;;;;;;173.57;74.15;;;;;;;;;;4936441;29;20032;-57
2024/02/05 09:25:46;;;;;;;218.05;75.20;;;;;;;;;;4936356;29;20075;-54
2024/02/05 09:28:12;;;;;;;175.40;75.45;;;;;;;;;;4937692;29;20047;-56
2024/02/05 09:30:41;;;;;;;173.23;73.25;;;;;;;;;;4936166;29;20127;-54
2024/02/05 09:33:07;;;;;;;199.93;73.25;;;;;;;;;;4937514;29;20039;-55
2024/02/05 09:35:35;;;;;;;161.93;76.72;;;;;;;;;;4937231;29;20083;-57
2024/02/05 09:38:02;;;;;;;282.00;89.72;;;;;;;;;;4937535;29;20036;-58
2024/02/05 09:40:29;;;;;;;118.10;70.40;;;;;;;;;;4936135;29;20063;-57
2024/02/05 09:42:56;;;;;;;219.13;88.37;;;;;;;;;;4936381;29;20397;-55
2024/02/05 09:45:26;;;;;;;150.20;72.00;;;;;;;;;;4937130;29;20036;-59
2024/02/05 09:47:52;;;;;;;166.20;79.22;;;;;;;;;;4937224;29;20032;-59
2024/02/05 09:50:18;;;;;;;142.30;73.67;;;;;;;;;;4937045;29;20035;-55
2024/02/05 09:52:45;;;;;;;167.75;77.47;;;;;;;;;;4937221;29;20036;-52
2024/02/05 09:55:11;;;;;;;146.00;78.85;;;;;;;;;;4936948;29;20569;-57
2024/02/05 09:57:37;;;;;;;126.75;73.63;;;;;;;;;;4935761;29;20116;-51
2024/02/05 10:00:04;;;;;;;178.17;81.27;;;;;;;;;;4935346;29;20032;-57
2024/02/05 10:02:31;;;;;;;128.02;75.45;;;;;;;;;;4936720;29;20505;-54
2024/02/05 10:04:59;;;;;;;141.98;80.00;;;;;;;;;;4936862;29;20094;-55
2024/02/05 10:07:26;;;;;;;265.30;91.30;;;;;;;;;;4935546;29;20455;-54
2024/02/05 10:09:54;;;;;;;171.00;78.00;;;;;;;;;;4936805;29;20500;-55
2024/02/05 10:12:21;;;;;;;185.68;76.70;;;;;;;;;;4936815;29;20059;-57
2024/02/05 10:14:47;;;;;;;131.73;76.88;;;;;;;;;;4936706;29;20035;-53
2024/02/05 10:17:16;;;;;;;159.27;78.07;;;;;;;;;;4936461;29;20034;-53
2024/02/05 10:19:42;;;;;;;133.38;78.47;;;;;;;;;;4936655;29;20079;-54
2024/02/05 10:22:09;;;;;;;120.20;70.97;;;;;;;;;;4936839;29;20050;-55
2024/02/05 10:24:40;;;;;;;130.05;74.30;;;;;;;;;;4936846;29;20396;-53
2024/02/05 10:27:06;;;;;;;144.20;75.15;;;;;;;;;;4935182;29;20032;-56
2024/02/05 10:29:33;;;;;;;192.82;74.93;;;;;;;;;;4935190;29;20119;-57
2024/02/05 10:31:59;;;;;;;115.10;70.60;;;;;;;;;;4936821;29;20040;-55
2024/02/05 10:34:26;;;;;;;129.90;74.30;;;;;;;;;;4936384;29;20039;-54
2024/02/05 10:36:52;;;;;;;139.02;76.85;;;;;;;;;;4936212;29;20433;-53
2024/02/05 10:39:26;;;;;;;124.57;78.45;;;;;;;;;;4935104;29;20127;-53
2024/02/05 10:41:54;;;;;;;111.63;74.50;;;;;;;;;;4936206;29;20297;-53
2024/02/05 10:44:21;;;;;;;142.60;82.05;;;;;;;;;;4936166;29;20019;-57
2024/02/05 10:46:49;;;;;;;149.45;83.72;;;;;;;;;;4934831;29;20031;-55
2024/02/05 10:49:16;;;;;;;135.48;83.20;;;;;;;;;;4934847;29;20047;-52
2024/02/05 10:51:44;;;;;;;133.75;83.57;;;;;;;;;;4936132;29;20066;-54
2024/02/05 10:54:10;;;;;;;133.05;85.00;;;;;;;;;;4936052;29;20027;-56
2024/02/05 10:56:42;;;;;;;132.48;83.78;;;;;;;;;;4934507;29;20148;-58
2024/02/05 10:59:09;;;;;;;168.93;82.40;;;;;;;;;;4936118;29;20081;-52
2024/02/05 11:01:55;;;;;;;119.57;80.32;;;;;;;;;;4935997;29;20031;-58
2024/02/05 11:04:22;;;;;;;146.18;76.38;;;;;;;;;;4935692;29;20028;-55
2024/02/05 11:06:49;;;;;;;137.30;84.20;;;;;;;;;;4935567;29;20034;-56
2024/02/05 11:09:16;;;;;;;114.70;75.35;;;;;;;;;;4918561;29;20035;-54
2024/02/05 11:11:44;;;;;;;130.35;83.85;;;;;;;;;;4934495;29;20042;-56
2024/02/05 11:14:12;;;;;;;135.50;83.53;;;;;;;;;;4935659;29;20068;-53
2024/02/05 11:16:39;;;;;;;136.23;83.88;;;;;;;;;;4934271;29;20028;-55
2024/02/05 11:19:07;;;;;;;120.05;78.55;;;;;;;;;;4935503;29;20027;-56
2024/02/05 11:21:39;;;;;;;127.75;79.63;;;;;;;;;;4935618;29;20027;-57
2024/02/05 11:24:09;;;;;;;143.52;86.80;;;;;;;;;;4933580;29;20040;-59
2024/02/05 11:26:35;;;;;;;147.65;90.43;;;;;;;;;;4919571;29;20035;-56
2024/02/05 11:29:01;;;;;;;142.63;90.38;;;;;;;;;;4923600;29;20493;-58
2024/02/05 11:31:28;;;;;;;137.68;87.93;;;;;;;;;;4914380;29;20028;-57
2024/02/05 11:33:58;;;;;;;142.57;90.30;;;;;;;;;;4914199;29;20031;-53
2024/02/05 11:36:24;;;;;;;156.43;97.22;;;;;;;;;;4914512;29;20485;-56
2024/02/05 11:38:50;;;;;;;156.73;92.38;;;;;;;;;;4915030;29;20512;-52
2024/02/05 11:41:23;;;;;;;141.02;88.75;;;;;;;;;;4909613;29;20028;-54
2024/02/05 11:43:50;;;;;;;160.90;97.45;;;;;;;;;;4924035;29;20038;-55
2024/02/05 11:46:17;;;;;;;154.15;93.53;;;;;;;;;;4920950;29;20026;-52
2024/02/05 11:48:43;;;;;;;154.90;95.22;;;;;;;;;;4912214;29;20060;-52
2024/02/05 11:51:12;;;;;;;152.90;94.90;;;;;;;;;;4921825;29;20034;-55
2024/02/05 11:53:44;;;;;;;148.18;91.65;;;;;;;;;;4920992;29;20462;-53
2024/02/05 11:56:11;;;;;;;154.52;96.80;;;;;;;;;;4914712;29;20118;-56
2024/02/05 11:58:37;;;;;;;171.80;100.93;;;;;;;;;;4927082;29;20016;-56
2024/02/05 12:01:05;;;;;;;153.40;99.82;;;;;;;;;;4925147;29;20261;-56
2024/02/05 12:03:31;;;;;;;149.50;97.57;;;;;;;;;;4914141;29;20044;-55
2024/02/05 12:05:57;;;;;;;151.38;95.57;;;;;;;;;;4915365;29;20115;-58
2024/02/05 12:08:24;;;;;;;140.05;94.47;;;;;;;;;;4923175;29;20129;-53
2024/02/05 12:10:50;;;;;;;149.17;94.83;;;;;;;;;;4919003;29;20035;-58
2024/02/05 12:13:19;;;;;;;152.10;100.00;;;;;;;;;;4922469;29;20036;-58
2024/02/05 12:15:47;;;;;;;160.73;103.22;;;;;;;;;;4918775;29;20035;-60
2024/02/05 12:18:13;;;;;;;169.75;106.45;;;;;;;;;;4894772;29;20052;-56
2024/02/05 12:20:39;;;;;;;170.33;112.77;;;;;;;;;;4906677;29;20638;-57
2024/02/05 12:23:06;;;;;;;161.47;106.90;;;;;;;;;;4912806;29;20036;-54
2024/02/05 12:25:33;;;;;;;158.90;103.00;;;;;;;;;;4914287;29;20059;-55
2024/02/05 12:27:59;;;;;;;157.80;107.28;;;;;;;;;;4933082;29;20037;-52
2024/02/05 12:30:25;;;;;;;153.63;99.35;;;;;;;;;;4928799;29;20036;-54
2024/02/05 12:32:52;;;;;;;151.80;101.78;;;;;;;;;;4920106;29;20031;-52
2024/02/05 12:35:18;;;;;;;149.00;99.30;;;;;;;;;;4913711;29;20263;-52
2024/02/05 12:37:44;;;;;;;152.93;102.25;;;;;;;;;;4932536;29;20405;-58
2024/02/05 12:40:11;;;;;;;180.93;113.38;;;;;;;;;;4931350;29;20178;-57
2024/02/05 12:42:37;;;;;;;161.70;106.28;;;;;;;;;;4931689;29;20032;-54
2024/02/05 12:45:07;;;;;;;162.38;106.65;;;;;;;;;;4928718;29;20016;-55
2024/02/05 12:47:33;;;;;;;159.38;102.57;;;;;;;;;;4892922;29;20077;-53
2024/02/05 12:50:00;;;;;;;151.55;100.65;;;;;;;;;;4896904;29;20044;-54
2024/02/05 12:52:26;;;;;;;159.13;105.87;;;;;;;;;;4931688;29;20040;-58
2024/02/05 12:54:52;;;;;;;164.95;106.60;;;;;;;;;;4927469;29;20028;-57
2024/02/05 12:57:19;;;;;;;154.13;102.63;;;;;;;;;;4912616;29;20036;-52
2024/02/05 12:59:45;;;;;;;158.20;107.95;;;;;;;;;;4913846;29;20033;-59
2024/02/05 13:02:20;;;;;;;152.80;104.40;;;;;;;;;;4914021;29;20032;-57
2024/02/05 13:04:46;;;;;;;160.70;108.45;;;;;;;;;;4916009;29;20119;-56
2024/02/05 13:07:18;;;;;;;160.63;108.00;;;;;;;;;;4932539;29;20086;-56
2024/02/05 13:09:44;;;;;;;155.75;105.43;;;;;;;;;;4931105;29;20519;-58
2024/02/05 13:12:12;;;;;;;161.97;109.93;;;;;;;;;;4932140;29;20028;-53
2024/02/05 13:14:39;;;;;;;157.23;107.50;;;;;;;;;;4930894;29;20285;-56
2024/02/05 13:17:05;;;;;;;162.13;108.30;;;;;;;;;;4916435;29;20222;-55
2024/02/05 13:19:36;;;;;;;159.02;108.32;;;;;;;;;;4917974;29;20091;-59
2024/02/05 13:22:06;;;;;;;146.90;102.60;;;;;;;;;;4916398;29;20197;-56
2024/02/05 13:24:32;;;;;;;145.05;103.13;;;;;;;;;;4916895;29;20087;-57
2024/02/05 13:26:58;;;;;;;146.25;106.28;;;;;;;;;;4932514;29;20035;-56
2024/02/05 13:29:25;;;;;;;129.70;100.55;;;;;;;;;;4926471;29;20375;-58
2024/02/05 13:31:51;;;;;;;144.40;107.50;;;;;;;;;;4926071;29;20080;-57
2024/02/05 13:34:20;;;;;;;151.67;110.77;;;;;;;;;;4919217;29;20501;-59
2024/02/05 13:36:46;;;;;;;138.00;101.15;;;;;;;;;;4932964;29;20126;-58
2024/02/05 13:39:13;;;;;;;121.40;94.00;;;;;;;;;;4935744;29;20030;-58
2024/02/05 13:41:41;;;;;;;119.73;93.00;;;;;;;;;;4934220;29;20374;-56
2024/02/05 13:44:14;;;;;;;117.30;89.78;;;;;;;;;;4933886;29;20369;-54
2024/02/05 13:46:40;;;;;;;117.10;89.22;;;;;;;;;;4921223;29;20040;-60
2024/02/05 13:49:07;;;;;;;116.90;87.53;;;;;;;;;;4932956;29;20039;-57
2024/02/05 13:51:34;;;;;;;111.38;86.32;;;;;;;;;;4928906;29;20551;-57
2024/02/05 13:54:00;;;;;;;118.57;87.43;;;;;;;;;;4917444;29;20036;-59
2024/02/05 13:56:27;;;;;;;113.20;87.50;;;;;;;;;;4920255;29;20485;-58
2024/02/05 13:58:53;;;;;;;117.20;88.17;;;;;;;;;;4933106;29;20074;-59